createdAt,value
2023-05-10T00:00:40.224Z,99179.13
2023-05-10T00:03:09.096Z,99177.38
2023-05-10T00:05:37.516Z,99171.31
2023-05-10T00:08:06.372Z,99167.78
2023-05-10T00:10:35.251Z,99176.50
2023-05-10T00:13:05.663Z,99181.72
2023-05-10T00:15:35.646Z,99177.38
2023-05-10T00:18:04.960Z,99179.97
2023-05-10T00:20:33.956Z,99178.19
2023-05-10T00:23:02.338Z,99172.97
2023-05-10T00:25:30.744Z,99173.84
2023-05-10T00:27:59.480Z,99171.22
2023-05-10T00:30:29.679Z,99172.97
2023-05-10T00:32:58.147Z,99169.47
2023-05-10T00:35:27.060Z,99174.69
2023-05-10T00:37:55.958Z,99172.97
2023-05-10T00:40:25.061Z,99177.31
2023-05-10T00:42:58.034Z,99171.16
2023-05-10T00:45:28.211Z,99172.06
2023-05-10T00:47:57.147Z,99172.91
2023-05-10T00:50:26.969Z,99170.28
2023-05-10T00:52:55.831Z,99171.13
2023-05-10T00:55:24.697Z,99178.97
2023-05-10T00:57:53.107Z,99187.69
2023-05-10T01:00:22.653Z,99179.81
2023-05-10T01:02:52.479Z,99176.34
2023-05-10T01:05:21.299Z,99165.00
2023-05-10T01:07:49.981Z,99166.75
2023-05-10T01:10:18.713Z,99167.63
2023-05-10T01:12:49.249Z,99165.88
2023-05-10T01:15:19.765Z,99172.88
2023-05-10T01:17:51.871Z,99178.09
2023-05-10T01:20:20.801Z,99177.22
2023-05-10T01:23:16.601Z,99172.81
2023-05-10T01:26:27.255Z,99183.28
2023-05-10T01:29:44.831Z,99181.53
2023-05-10T01:32:30.811Z,99191.94
2023-05-10T01:35:06.200Z,99187.59
2023-05-10T01:37:43.326Z,99196.31
2023-05-10T01:40:22.256Z,99199.72
2023-05-10T01:42:57.710Z,99195.34
2023-05-10T01:45:34.138Z,99204.06
2023-05-10T01:48:09.519Z,99196.19
2023-05-10T01:50:40.991Z,99196.19
2023-05-10T01:53:12.692Z,99205.81
2023-05-10T01:55:48.890Z,99203.16
2023-05-10T01:58:24.034Z,99210.09
2023-05-10T02:00:53.669Z,99205.72
2023-05-10T02:03:26.354Z,99199.59
2023-05-10T02:05:57.050Z,99204.78
2023-05-10T02:08:26.400Z,99195.16
2023-05-10T02:10:58.326Z,99204.72
2023-05-10T02:13:28.222Z,99202.09
2023-05-10T02:15:59.277Z,99210.78
2023-05-10T02:18:30.966Z,99215.09
2023-05-10T02:21:01.485Z,99212.47
2023-05-10T02:23:32.089Z,99211.56
2023-05-10T02:26:02.877Z,99214.16
2023-05-10T02:28:33.211Z,99216.78
2023-05-10T02:31:02.202Z,99221.13
2023-05-10T02:33:34.034Z,99219.34
2023-05-10T02:36:04.432Z,99224.56
2023-05-10T02:38:34.848Z,99226.31
2023-05-10T02:41:04.373Z,99222.81
2023-05-10T02:43:33.402Z,99228.88
2023-05-10T02:46:02.201Z,99225.34
2023-05-10T02:48:32.299Z,99233.19
2023-05-10T02:51:08.110Z,99230.53
2023-05-10T02:53:38.957Z,99228.72
2023-05-10T02:56:16.340Z,99228.75
2023-05-10T02:58:44.840Z,99231.34
2023-05-10T03:01:13.304Z,99234.00
2023-05-10T03:03:43.382Z,99241.84
2023-05-10T03:06:12.230Z,99227.94
2023-05-10T03:08:40.870Z,99226.16
2023-05-10T03:11:31.008Z,99233.97
2023-05-10T03:14:16.728Z,99238.31
2023-05-10T03:16:49.514Z,99239.22
2023-05-10T03:19:28.775Z,99234.00
2023-05-10T03:22:02.209Z,99234.94
2023-05-10T03:24:37.818Z,99238.41
2023-05-10T03:27:07.209Z,99239.31
2023-05-10T03:29:36.713Z,99245.47
2023-05-10T03:32:05.719Z,99253.28
2023-05-10T03:34:35.750Z,99249.81
2023-05-10T03:37:04.854Z,99241.94
2023-05-10T03:39:34.145Z,99258.53
2023-05-10T03:42:04.286Z,99252.44
2023-05-10T03:44:34.290Z,99256.78
2023-05-10T03:47:02.921Z,99257.69
2023-05-10T03:49:31.558Z,99264.66
2023-05-10T03:52:01.609Z,99265.56
2023-05-10T03:54:30.015Z,99266.44
2023-05-10T03:56:58.284Z,99267.31
2023-05-10T03:59:26.725Z,99273.41
2023-05-10T04:01:55.240Z,99265.56
2023-05-10T04:04:24.308Z,99264.69
2023-05-10T04:06:52.861Z,99264.72
2023-05-10T04:09:23.284Z,99260.34
2023-05-10T04:11:51.700Z,99261.22
2023-05-10T04:14:20.322Z,99260.34
2023-05-10T04:16:48.882Z,99268.19
2023-05-10T04:19:17.395Z,99274.28
2023-05-10T04:21:46.094Z,99267.31
2023-05-10T04:24:15.072Z,99273.41
2023-05-10T04:26:44.946Z,99274.25
2023-05-10T04:29:13.342Z,99273.34
2023-05-10T04:31:41.915Z,99269.84
2023-05-10T04:34:10.421Z,99268.13
2023-05-10T04:36:38.977Z,99268.94
2023-05-10T04:39:08.065Z,99279.38
2023-05-10T04:41:36.312Z,99276.72
2023-05-10T04:44:07.131Z,99282.81
2023-05-10T04:46:35.575Z,99277.56
2023-05-10T04:49:04.134Z,99279.28
2023-05-10T04:51:33.283Z,99277.50
2023-05-10T04:54:06.427Z,99280.97
2023-05-10T04:56:35.274Z,99289.63
2023-05-10T04:59:05.579Z,99291.38
2023-05-10T05:01:34.451Z,99288.75
2023-05-10T05:04:03.197Z,99285.25
2023-05-10T05:06:31.558Z,99284.38
2023-05-10T05:09:00.411Z,99289.59
2023-05-10T05:11:28.764Z,99300.06
2023-05-10T05:13:57.323Z,99293.94
2023-05-10T05:16:27.773Z,99311.38
2023-05-10T05:18:56.895Z,99316.59
2023-05-10T05:21:27.800Z,99314.84
2023-05-10T05:23:56.367Z,99315.72
2023-05-10T05:26:25.036Z,99303.50
2023-05-10T05:28:55.461Z,99300.06
2023-05-10T05:31:24.300Z,99310.50
2023-05-10T05:33:54.421Z,99313.09
2023-05-10T05:36:23.295Z,99313.06
2023-05-10T05:38:51.839Z,99318.28
2023-05-10T05:41:20.137Z,99313.94
2023-05-10T05:43:48.712Z,99317.44
2023-05-10T05:46:17.148Z,99310.47
2023-05-10T05:48:45.826Z,99309.59
2023-05-10T05:51:15.818Z,99318.28
2023-05-10T05:53:44.153Z,99326.09
2023-05-10T05:56:12.438Z,99319.06
2023-05-10T05:58:40.825Z,99329.50
2023-05-10T06:01:09.573Z,99329.50
2023-05-10T06:03:37.980Z,99326.00
2023-05-10T06:06:06.873Z,99335.59
2023-05-10T06:08:36.735Z,99336.47
2023-05-10T06:11:05.369Z,99334.75
2023-05-10T06:13:36.365Z,99347.84
2023-05-10T06:16:05.250Z,99354.81
2023-05-10T06:18:33.623Z,99359.97
2023-05-10T06:21:02.025Z,99365.16
2023-05-10T06:23:30.922Z,99366.94
2023-05-10T06:26:00.731Z,99364.31
2023-05-10T06:28:29.166Z,99367.81
2023-05-10T06:30:57.482Z,99367.81
2023-05-10T06:33:25.974Z,99361.72
2023-05-10T06:35:54.292Z,99360.84
2023-05-10T06:38:23.059Z,99373.09
2023-05-10T06:40:51.595Z,99373.97
2023-05-10T06:43:21.801Z,99375.75
2023-05-10T06:45:50.829Z,99374.00
2023-05-10T06:48:19.660Z,99375.78
2023-05-10T06:50:48.232Z,99376.66
2023-05-10T06:53:16.676Z,99379.25
2023-05-10T06:55:45.133Z,99377.53
2023-05-10T06:58:13.549Z,99386.25
2023-05-10T07:00:44.835Z,99382.75
2023-05-10T07:03:13.862Z,99380.16
2023-05-10T07:05:42.318Z,99386.25
2023-05-10T07:08:11.038Z,99387.13
2023-05-10T07:10:39.421Z,99389.81
2023-05-10T07:13:07.932Z,99400.28
2023-05-10T07:15:36.535Z,99388.94
2023-05-10T07:18:07.549Z,99393.34
2023-05-10T07:20:36.107Z,99399.47
2023-05-10T07:23:04.541Z,99389.91
2023-05-10T07:25:33.292Z,99400.38
2023-05-10T07:28:01.921Z,99390.84
2023-05-10T07:30:30.747Z,99389.13
2023-05-10T07:33:00.226Z,99391.75
2023-05-10T07:35:30.411Z,99391.75
2023-05-10T07:37:58.964Z,99391.72
2023-05-10T07:40:27.330Z,99394.31
2023-05-10T07:42:55.745Z,99396.91
2023-05-10T07:45:24.713Z,99398.59
2023-05-10T07:47:53.312Z,99397.72
2023-05-10T07:50:22.199Z,99400.38
2023-05-10T07:52:52.665Z,99396.00
2023-05-10T07:55:22.180Z,99405.59
2023-05-10T07:57:50.718Z,99405.63
2023-05-10T08:00:22.127Z,99396.06
2023-05-10T08:02:51.857Z,99403.09
2023-05-10T08:05:20.292Z,99412.69
2023-05-10T08:07:48.693Z,99408.38
2023-05-10T08:10:18.810Z,99417.13
2023-05-10T08:12:47.429Z,99415.31
2023-05-10T08:15:16.028Z,99417.91
2023-05-10T08:17:45.106Z,99424.88
2023-05-10T08:20:17.854Z,99423.16
2023-05-10T08:22:46.998Z,99428.41
2023-05-10T08:25:15.779Z,99431.88
2023-05-10T08:27:45.784Z,99431.00
2023-05-10T08:30:14.967Z,99427.53
2023-05-10T08:32:43.859Z,99429.22
2023-05-10T08:35:13.124Z,99438.81
2023-05-10T08:37:41.513Z,99449.34
2023-05-10T08:40:13.981Z,99438.91
2023-05-10T08:42:49.860Z,99444.19
2023-05-10T08:45:20.213Z,99446.81
2023-05-10T08:47:48.919Z,99452.91
2023-05-10T08:50:19.988Z,99445.91
2023-05-10T08:52:52.911Z,99456.38
2023-05-10T08:55:21.562Z,99455.88
2023-05-10T08:57:51.756Z,99458.38
2023-05-10T09:00:23.871Z,99458.38
2023-05-10T09:02:52.628Z,99460.09
2023-05-10T09:05:21.485Z,99454.00
2023-05-10T09:07:50.053Z,99461.84
2023-05-10T09:10:18.977Z,99460.09
2023-05-10T09:12:50.198Z,99465.31
2023-05-10T09:15:20.283Z,99471.50
2023-05-10T09:17:51.409Z,99473.28
2023-05-10T09:20:19.903Z,99479.41
2023-05-10T09:22:48.541Z,99474.16
2023-05-10T09:25:18.828Z,99476.81
2023-05-10T09:27:51.121Z,99475.97
2023-05-10T09:30:26.454Z,99483.03
2023-05-10T09:32:56.293Z,99476.00
2023-05-10T09:35:29.494Z,99469.97
2023-05-10T09:38:01.343Z,99466.50
2023-05-10T09:40:31.763Z,99470.91
2023-05-10T09:43:03.937Z,99469.22
2023-05-10T09:45:37.744Z,99468.41
2023-05-10T09:48:08.034Z,99481.53
2023-05-10T09:50:36.750Z,99485.06
2023-05-10T09:53:05.907Z,99481.59
2023-05-10T09:55:45.166Z,99487.69
2023-05-10T09:58:16.151Z,99476.38
2023-05-10T10:00:46.392Z,99481.63
2023-05-10T10:03:16.623Z,99485.16
2023-05-10T10:05:46.371Z,99481.69
2023-05-10T10:08:16.685Z,99491.28
2023-05-10T10:10:47.348Z,99484.31
2023-05-10T10:13:18.171Z,99486.94
2023-05-10T10:15:47.892Z,99486.06
2023-05-10T10:18:16.925Z,99483.47
2023-05-10T10:20:45.473Z,99478.25
2023-05-10T10:23:15.851Z,99494.84
2023-05-10T10:25:48.761Z,99483.53
2023-05-10T10:28:28.859Z,99487.09
2023-05-10T10:31:17.006Z,99491.47
2023-05-10T10:34:02.869Z,99498.47
2023-05-10T10:36:31.883Z,99502.84
2023-05-10T10:39:01.816Z,99496.81
2023-05-10T10:41:36.290Z,99507.25
2023-05-10T10:44:41.336Z,99502.84
2023-05-10T10:47:25.480Z,99515.03
2023-05-10T10:50:06.202Z,99514.09
2023-05-10T10:52:36.270Z,99508.03
2023-05-10T10:55:09.553Z,99508.88
2023-05-10T10:57:50.679Z,99515.91
2023-05-10T11:00:30.074Z,99511.53
2023-05-10T11:03:01.132Z,99506.31
2023-05-10T11:05:48.484Z,99507.22
2023-05-10T11:08:27.855Z,99508.97
2023-05-10T11:11:08.187Z,99524.72
2023-05-10T11:13:41.768Z,99526.47
2023-05-10T11:16:30.120Z,99520.38
2023-05-10T11:19:05.299Z,99522.09
2023-05-10T11:21:35.117Z,99522.97
2023-05-10T11:24:07.203Z,99533.44
2023-05-10T11:26:38.352Z,99538.66
2023-05-10T11:29:07.250Z,99529.03
2023-05-10T11:31:37.484Z,99534.28
2023-05-10T11:34:06.153Z,99537.78
2023-05-10T11:36:37.303Z,99539.56
2023-05-10T11:39:07.166Z,99547.44
2023-05-10T11:41:35.651Z,99537.00
2023-05-10T11:44:05.251Z,99537.00
2023-05-10T11:46:33.985Z,99541.34
2023-05-10T11:49:05.839Z,99541.34
2023-05-10T11:51:37.833Z,99547.44
2023-05-10T11:54:10.477Z,99551.81
2023-05-10T11:56:39.843Z,99546.56
2023-05-10T11:59:09.031Z,99549.19
2023-05-10T12:01:38.277Z,99544.03
2023-05-10T12:04:09.906Z,99546.66
2023-05-10T12:06:43.139Z,99557.25
2023-05-10T12:09:12.372Z,99558.09
2023-05-10T12:11:44.336Z,99562.47
2023-05-10T12:14:13.377Z,99558.13
2023-05-10T12:16:42.492Z,99569.47
2023-05-10T12:19:12.758Z,99565.16
2023-05-10T12:21:42.476Z,99554.69
2023-05-10T12:24:11.518Z,99567.75
2023-05-10T12:26:39.947Z,99569.53
2023-05-10T12:29:16.675Z,99566.03
2023-05-10T12:31:56.829Z,99564.25
2023-05-10T12:34:28.493Z,99560.75
2023-05-10T12:36:58.125Z,99564.25
2023-05-10T12:39:26.755Z,99567.75
2023-05-10T12:41:55.230Z,99559.06
2023-05-10T12:44:23.681Z,99578.31
2023-05-10T12:46:52.179Z,99566.09
2023-05-10T12:49:20.851Z,99573.09
2023-05-10T12:51:50.590Z,99572.25
2023-05-10T12:54:18.962Z,99573.13
2023-05-10T12:56:47.940Z,99575.84
2023-05-10T12:59:16.315Z,99574.97
2023-05-10T13:01:44.822Z,99570.66
2023-05-10T13:04:13.365Z,99578.56
2023-05-10T13:06:41.751Z,99573.34
2023-05-10T13:09:11.673Z,99577.75
2023-05-10T13:11:40.103Z,99583.03
2023-05-10T13:14:08.580Z,99578.72
2023-05-10T13:16:36.910Z,99579.66
2023-05-10T13:19:05.486Z,99569.19
2023-05-10T13:21:33.940Z,99584.97
2023-05-10T13:24:02.910Z,99578.06
2023-05-10T13:26:32.621Z,99577.25
2023-05-10T13:29:01.185Z,99583.41
2023-05-10T13:31:29.665Z,99575.53
2023-05-10T13:33:58.373Z,99577.34
2023-05-10T13:36:27.321Z,99581.72
2023-05-10T13:38:55.712Z,99578.22
2023-05-10T13:41:24.255Z,99575.66
2023-05-10T13:43:53.962Z,99577.44
2023-05-10T13:46:22.359Z,99575.72
2023-05-10T13:48:50.949Z,99584.53
2023-05-10T13:51:19.594Z,99578.44
2023-05-10T13:53:48.564Z,99575.81
2023-05-10T13:56:17.100Z,99573.19
2023-05-10T13:58:45.459Z,99568.84
2023-05-10T14:01:15.620Z,99571.44
2023-05-10T14:03:44.199Z,99576.63
2023-05-10T14:06:12.785Z,99567.00
2023-05-10T14:08:41.345Z,99562.66
2023-05-10T14:11:09.677Z,99558.31
2023-05-10T14:13:38.295Z,99561.84
2023-05-10T14:16:07.743Z,99556.59
2023-05-10T14:18:37.686Z,99561.00
2023-05-10T14:21:06.487Z,99556.69
2023-05-10T14:23:34.889Z,99559.34
2023-05-10T14:26:03.796Z,99551.47
2023-05-10T14:28:32.487Z,99548.06
2023-05-10T14:31:01.072Z,99548.97
2023-05-10T14:33:29.491Z,99538.50
2023-05-10T14:36:00.899Z,99542.91
2023-05-10T14:38:29.497Z,99540.28
2023-05-10T14:40:58.489Z,99544.66
2023-05-10T14:43:28.537Z,99543.78
2023-05-10T14:45:57.097Z,99548.19
2023-05-10T14:48:25.600Z,99550.78
2023-05-10T14:50:54.527Z,99554.31
2023-05-10T14:53:24.531Z,99555.19
2023-05-10T14:55:53.370Z,99551.69
2023-05-10T14:58:22.291Z,99555.19
2023-05-10T15:00:50.678Z,99549.94
2023-05-10T15:03:19.811Z,99552.59
2023-05-10T15:05:49.368Z,99555.19
2023-05-10T15:08:17.736Z,99556.94
2023-05-10T15:10:47.779Z,99554.31
2023-05-10T15:13:16.271Z,99547.31
2023-05-10T15:15:45.244Z,99546.47
2023-05-10T15:18:14.043Z,99547.34
2023-05-10T15:20:42.580Z,99546.47
2023-05-10T15:23:11.573Z,99544.75
2023-05-10T15:25:40.517Z,99539.50
2023-05-10T15:28:10.275Z,99537.75
2023-05-10T15:30:39.036Z,99541.25
2023-05-10T15:33:08.732Z,99550.00
2023-05-10T15:35:39.248Z,99547.38
2023-05-10T15:38:08.090Z,99549.09
2023-05-10T15:40:36.515Z,99547.38
2023-05-10T15:43:06.139Z,99550.84
2023-05-10T15:45:37.544Z,99551.72
2023-05-10T15:48:06.894Z,99558.72
2023-05-10T15:50:35.346Z,99560.50
2023-05-10T15:53:03.825Z,99562.22
2023-05-10T15:55:32.592Z,99564.81
2023-05-10T15:58:00.987Z,99563.91
2023-05-10T16:00:30.422Z,99569.16
2023-05-10T16:03:00.328Z,99568.28
2023-05-10T16:05:31.988Z,99572.63
2023-05-10T16:08:00.865Z,99563.88
2023-05-10T16:10:29.513Z,99577.88
2023-05-10T16:12:57.942Z,99582.19
2023-05-10T16:15:26.663Z,99583.09
2023-05-10T16:17:55.284Z,99582.22
2023-05-10T16:20:25.910Z,99579.56
2023-05-10T16:22:54.360Z,99582.16
2023-05-10T16:25:23.172Z,99590.03
2023-05-10T16:27:52.065Z,99596.13
2023-05-10T16:30:21.755Z,99595.25
2023-05-10T16:32:52.319Z,99591.69
2023-05-10T16:35:20.794Z,99593.44
2023-05-10T16:37:51.286Z,99597.78
2023-05-10T16:40:20.710Z,99602.13
2023-05-10T16:42:49.206Z,99600.38
2023-05-10T16:45:18.119Z,99596.00
2023-05-10T16:47:46.981Z,99599.47
2023-05-10T16:50:16.300Z,99609.97
2023-05-10T16:52:45.251Z,99597.72
2023-05-10T16:55:15.335Z,99603.00
2023-05-10T16:57:44.266Z,99605.59
2023-05-10T17:00:14.380Z,99607.34
2023-05-10T17:02:43.522Z,99608.19
2023-05-10T17:05:12.438Z,99618.66
2023-05-10T17:07:41.145Z,99617.78
2023-05-10T17:10:10.924Z,99624.78
2023-05-10T17:12:41.123Z,99619.53
2023-05-10T17:15:11.671Z,99624.78
2023-05-10T17:17:40.485Z,99621.28
2023-05-10T17:20:10.653Z,99629.16
2023-05-10T17:22:39.339Z,99628.25
2023-05-10T17:25:09.261Z,99627.34
2023-05-10T17:27:37.723Z,99638.63
2023-05-10T17:30:09.769Z,99643.81
2023-05-10T17:32:38.280Z,99645.44
2023-05-10T17:35:08.206Z,99642.72
2023-05-10T17:37:36.566Z,99643.44
2023-05-10T17:40:07.852Z,99658.19
2023-05-10T17:42:36.341Z,99658.06
2023-05-10T17:45:05.484Z,99659.66
2023-05-10T17:47:35.480Z,99663.03
2023-05-10T17:50:04.154Z,99668.16
2023-05-10T17:52:33.717Z,99669.81
2023-05-10T17:55:02.469Z,99674.16
2023-05-10T17:57:31.018Z,99674.06
2023-05-10T17:59:59.436Z,99682.78
2023-05-10T18:02:27.981Z,99676.66
2023-05-10T18:05:00.065Z,99681.03
2023-05-10T18:07:30.199Z,99687.13
2023-05-10T18:09:58.732Z,99688.00
2023-05-10T18:12:27.648Z,99693.25
2023-05-10T18:14:56.090Z,99693.25
2023-05-10T18:17:24.834Z,99691.56
2023-05-10T18:19:53.882Z,99686.38
2023-05-10T18:22:24.074Z,99688.19
2023-05-10T18:24:52.841Z,99690.84
2023-05-10T18:27:21.305Z,99689.13
2023-05-10T18:29:49.867Z,99704.84
2023-05-10T18:32:18.345Z,99702.25
2023-05-10T18:34:46.709Z,99704.91
2023-05-10T18:37:15.670Z,99697.94
2023-05-10T18:39:45.492Z,99702.34
2023-05-10T18:42:13.841Z,99712.84
2023-05-10T18:44:42.323Z,99705.00
2023-05-10T18:47:10.699Z,99711.13
2023-05-10T18:49:39.612Z,99712.84
2023-05-10T18:52:08.011Z,99704.94
2023-05-10T18:54:36.810Z,99709.31
2023-05-10T18:57:06.704Z,99714.47
2023-05-10T18:59:35.376Z,99717.94
2023-05-10T19:02:03.818Z,99722.25
2023-05-10T19:04:33.061Z,99723.09
2023-05-10T19:07:02.036Z,99730.06
2023-05-10T19:09:30.918Z,99728.34
2023-05-10T19:11:59.751Z,99730.97
2023-05-10T19:14:30.055Z,99726.59
2023-05-10T19:16:58.682Z,99733.56
2023-05-10T19:19:27.537Z,99737.09
2023-05-10T19:21:56.016Z,99738.78
2023-05-10T19:24:25.799Z,99746.66
2023-05-10T19:26:55.803Z,99744.06
2023-05-10T19:29:24.260Z,99745.78
2023-05-10T19:31:54.173Z,99745.81
2023-05-10T19:34:23.030Z,99745.81
2023-05-10T19:36:51.776Z,99747.56
2023-05-10T19:39:20.311Z,99755.44
2023-05-10T19:41:50.021Z,99750.19
2023-05-10T19:44:18.654Z,99749.31
2023-05-10T19:46:47.978Z,99758.06
2023-05-10T19:49:18.258Z,99758.06
2023-05-10T19:51:46.826Z,99751.06
2023-05-10T19:54:15.474Z,99761.53
2023-05-10T19:56:44.259Z,99759.78
2023-05-10T19:59:12.889Z,99766.75
2023-05-10T20:01:41.308Z,99762.38
2023-05-10T20:04:10.210Z,99766.75
2023-05-10T20:06:40.300Z,99765.00
2023-05-10T20:09:08.741Z,99756.25
2023-05-10T20:11:37.340Z,99763.25
2023-05-10T20:14:06.306Z,99763.22
2023-05-10T20:16:34.938Z,99763.19
2023-05-10T20:19:03.402Z,99751.84
2023-05-10T20:21:33.424Z,99761.44
2023-05-10T20:24:03.124Z,99751.81
2023-05-10T20:26:31.654Z,99751.72
2023-05-10T20:29:00.153Z,99753.44
2023-05-10T20:31:29.203Z,99754.28
2023-05-10T20:33:57.818Z,99755.97
2023-05-10T20:36:26.554Z,99757.75
2023-05-10T20:38:55.298Z,99761.22
2023-05-10T20:41:25.916Z,99762.09
2023-05-10T20:43:54.358Z,99766.44
2023-05-10T20:46:23.392Z,99762.94
2023-05-10T20:48:52.015Z,99758.59
2023-05-10T20:51:20.383Z,99764.69
2023-05-10T20:53:49.109Z,99766.41
2023-05-10T20:56:18.205Z,99759.41
2023-05-10T20:58:48.211Z,99757.66
2023-05-10T21:01:16.705Z,99750.66
2023-05-10T21:03:45.128Z,99764.63
2023-05-10T21:06:13.538Z,99756.75
2023-05-10T21:08:42.164Z,99756.75
2023-05-10T21:11:10.668Z,99757.66
2023-05-10T21:13:39.284Z,99757.63
2023-05-10T21:16:09.934Z,99762.84
2023-05-10T21:18:38.685Z,99768.97
2023-05-10T21:21:07.073Z,99761.09
2023-05-10T21:23:35.452Z,99759.31
2023-05-10T21:26:05.078Z,99767.16
2023-05-10T21:28:34.066Z,99759.31
2023-05-10T21:31:02.564Z,99753.22
2023-05-10T21:33:32.452Z,99757.56
2023-05-10T21:36:01.209Z,99761.00
2023-05-10T21:38:30.149Z,99760.06
2023-05-10T21:40:58.532Z,99758.34
2023-05-10T21:43:26.944Z,99760.97
2023-05-10T21:45:55.629Z,99758.34
2023-05-10T21:48:24.356Z,99753.94
2023-05-10T21:50:54.417Z,99752.16
2023-05-10T21:53:23.293Z,99749.47
2023-05-10T21:55:51.719Z,99755.56
2023-05-10T21:58:20.565Z,99754.69
2023-05-10T22:00:49.313Z,99759.91
2023-05-10T22:03:18.521Z,99759.88
2023-05-10T22:05:46.915Z,99762.44
2023-05-10T22:08:16.727Z,99764.16
2023-05-10T22:10:45.685Z,99759.78
2023-05-10T22:13:14.228Z,99766.69
2023-05-10T22:15:43.368Z,99763.22
2023-05-10T22:18:12.227Z,99765.81
2023-05-10T22:20:40.642Z,99771.06
2023-05-10T22:23:09.010Z,99769.31
2023-05-10T22:25:39.140Z,99762.31
2023-05-10T22:28:09.160Z,99772.78
2023-05-10T22:30:37.674Z,99771.94
2023-05-10T22:33:06.550Z,99770.16
2023-05-10T22:35:35.256Z,99769.31
2023-05-10T22:38:03.968Z,99770.16
2023-05-10T22:40:32.786Z,99770.16
2023-05-10T22:43:03.088Z,99770.13
2023-05-10T22:45:31.459Z,99776.25
2023-05-10T22:48:00.666Z,99771.03
2023-05-10T22:50:30.936Z,99777.94
2023-05-10T22:52:59.784Z,99773.56
2023-05-10T22:55:28.348Z,99774.44
2023-05-10T22:57:57.219Z,99774.44
2023-05-10T23:00:27.168Z,99772.69
2023-05-10T23:02:56.219Z,99774.44
2023-05-10T23:05:24.612Z,99781.38
2023-05-10T23:07:54.390Z,99775.31
2023-05-10T23:10:22.815Z,99786.59
2023-05-10T23:12:51.316Z,99778.72
2023-05-10T23:15:19.894Z,99777.84
2023-05-10T23:17:49.838Z,99788.31
2023-05-10T23:20:18.623Z,99783.06
2023-05-10T23:22:47.414Z,99783.91
2023-05-10T23:25:15.766Z,99790.88
2023-05-10T23:27:44.123Z,99792.63
2023-05-10T23:30:13.512Z,99789.97
2023-05-10T23:32:42.016Z,99787.31
2023-05-10T23:35:12.534Z,99793.38
2023-05-10T23:37:41.996Z,99789.00
2023-05-10T23:40:11.367Z,99787.25
2023-05-10T23:42:40.153Z,99784.63
2023-05-10T23:45:09.671Z,99787.16
2023-05-10T23:47:38.352Z,99782.78
2023-05-10T23:50:08.290Z,99784.47
2023-05-10T23:52:38.080Z,99787.13
2023-05-10T23:55:07.523Z,99781.88
2023-05-10T23:57:35.962Z,99783.59
